Willkommen auf der Webseite des Flugplatzes Uetersen/Heist PDF Drucken E-Mail

Liebe Fliegerfreunde, Piloten und Gäste,

wir wünschen ruhige Weihnachtstage und einen guten Rutsch nach 2018.

 

Bitte beachten Sie die NOTAMs zu den Öffnungszeiten an den Feiertagen, sowie zur Pistenbeschaffenheit.

 

Herr Szaguhn steht mit seinem Tower-Restaurant täglich außer Montags für Sie bereit.

 

Ihr Flugplatzteam

 

 

Zufallsbild

Aktuelle Termine

Mo Di Mi Do Fr Sa So
1 2 3 4 5 6 7
8 9 10 11 12 13 14
15 16 17 18 19 20 21
22 23 24 25 26 27 28
29 30 31 1 2 3 4

Pilotenwetter

[source: ADDS]
METAR
EDDH 162250Z 24008KT 9999 FEW005 BKN012CB 02/00 Q0989 TEMPO SCT012 =
TAF
TAF EDDH 161700Z 1618/1724 24010KT 9999 BKN020 PROB30 TEMPO 1618/1709 26015G25KT 2500 SHSNRA BKN007CB TEMPO 1709/1721 26015G30KT 3500 SHRASN BKN008CB =